sensor_id;sensor_type;location;lat;lon;timestamp;pressure;altitude;pressure_sealevel;temperature;humidity
68141;BME280;54941;52.220;104.306;2022-07-23T00:00:44;94663.03;;;13.81;99.56
68141;BME280;54941;52.220;104.306;2022-07-23T00:03:10;94664.56;;;13.87;99.26
68141;BME280;54941;52.220;104.306;2022-07-23T00:05:36;94661.72;;;13.83;99.32
68141;BME280;54941;52.220;104.306;2022-07-23T00:08:02;94661.44;;;13.90;99.58
68141;BME280;54941;52.220;104.306;2022-07-23T00:10:28;94662.97;;;13.91;99.21
68141;BME280;54941;52.220;104.306;2022-07-23T00:12:54;94660.56;;;14.04;98.70
68141;BME280;54941;52.220;104.306;2022-07-23T00:15:21;94657.22;;;14.04;98.62
68141;BME280;54941;52.220;104.306;2022-07-23T00:17:47;94654.59;;;14.09;98.24
68141;BME280;54941;52.220;104.306;2022-07-23T00:20:13;94655.06;;;14.16;97.76
68141;BME280;54941;52.220;104.306;2022-07-23T00:22:50;94652.72;;;14.20;97.34
68141;BME280;54941;52.220;104.306;2022-07-23T00:25:17;94652.94;;;14.23;97.37
68141;BME280;54941;52.220;104.306;2022-07-23T00:27:43;94656.84;;;14.26;97.30
68141;BME280;54941;52.220;104.306;2022-07-23T00:30:11;94659.91;;;14.33;97.67
68141;BME280;54941;52.220;104.306;2022-07-23T00:32:47;94658.09;;;14.28;97.31
68141;BME280;54941;52.220;104.306;2022-07-23T00:35:13;94653.41;;;14.30;97.24
68141;BME280;54941;52.220;104.306;2022-07-23T00:37:39;94653.16;;;14.32;97.54
68141;BME280;54941;52.220;104.306;2022-07-23T00:40:06;94647.44;;;14.35;97.50
68141;BME280;54941;52.220;104.306;2022-07-23T00:42:32;94652.91;;;14.28;97.14
68141;BME280;54941;52.220;104.306;2022-07-23T00:44:59;94661.19;;;14.35;96.98
68141;BME280;54941;52.220;104.306;2022-07-23T00:47:25;94662.22;;;14.34;97.05
68141;BME280;54941;52.220;104.306;2022-07-23T00:49:51;94656.28;;;14.29;96.78
68141;BME280;54941;52.220;104.306;2022-07-23T00:52:18;94658.66;;;14.25;97.23
68141;BME280;54941;52.220;104.306;2022-07-23T00:54:44;94656.53;;;14.32;97.19
68141;BME280;54941;52.220;104.306;2022-07-23T00:57:11;94655.28;;;14.25;97.13
68141;BME280;54941;52.220;104.306;2022-07-23T00:59:38;94659.91;;;14.33;97.55
68141;BME280;54941;52.220;104.306;2022-07-23T01:02:05;94663.78;;;14.35;97.35
68141;BME280;54941;52.220;104.306;2022-07-23T01:04:31;94661.19;;;14.35;97.14
68141;BME280;54941;52.220;104.306;2022-07-23T01:06:57;94661.41;;;14.34;97.55
68141;BME280;54941;52.220;104.306;2022-07-23T01:09:23;94658.59;;;14.35;97.65
68141;BME280;54941;52.220;104.306;2022-07-23T01:11:51;94658.56;;;14.40;97.06
68141;BME280;54941;52.220;104.306;2022-07-23T01:14:18;94658.81;;;14.44;97.38
68141;BME280;54941;52.220;104.306;2022-07-23T01:16:47;94661.41;;;14.44;97.11
68141;BME280;54941;52.220;104.306;2022-07-23T01:19:15;94651.97;;;14.53;97.06
68141;BME280;54941;52.220;104.306;2022-07-23T01:21:44;94651.28;;;14.42;96.36
68141;BME280;54941;52.220;104.306;2022-07-23T01:24:11;94649.38;;;14.58;97.11
68141;BME280;54941;52.220;104.306;2022-07-23T01:26:40;94643.50;;;14.47;96.52
68141;BME280;54941;52.220;104.306;2022-07-23T01:29:07;94649.84;;;14.60;96.45
68141;BME280;54941;52.220;104.306;2022-07-23T01:31:33;94654.19;;;14.70;96.36
68141;BME280;54941;52.220;104.306;2022-07-23T01:33:59;94644.31;;;14.72;96.05
68141;BME280;54941;52.220;104.306;2022-07-23T01:36:25;94648.47;;;14.73;95.39
68141;BME280;54941;52.220;104.306;2022-07-23T01:38:52;94648.78;;;14.95;94.87
68141;BME280;54941;52.220;104.306;2022-07-23T01:41:18;94637.03;;;15.02;94.24
68141;BME280;54941;52.220;104.306;2022-07-23T01:43:47;94641.06;;;15.14;93.89
68141;BME280;54941;52.220;104.306;2022-07-23T01:46:14;94642.78;;;15.47;93.09
68141;BME280;54941;52.220;104.306;2022-07-23T01:48:40;94647.63;;;15.58;91.46
68141;BME280;54941;52.220;104.306;2022-07-23T01:51:10;94645.06;;;15.53;90.09
68141;BME280;54941;52.220;104.306;2022-07-23T01:53:36;94644.75;;;15.79;91.37
68141;BME280;54941;52.220;104.306;2022-07-23T01:56:02;94643.78;;;15.93;90.17
68141;BME280;54941;52.220;104.306;2022-07-23T01:58:29;94640.78;;;16.05;89.31
68141;BME280;54941;52.220;104.306;2022-07-23T02:00:55;94632.84;;;15.96;88.43
68141;BME280;54941;52.220;104.306;2022-07-23T02:03:22;94632.56;;;15.98;89.22
68141;BME280;54941;52.220;104.306;2022-07-23T02:05:48;94636.00;;;16.31;88.76
68141;BME280;54941;52.220;104.306;2022-07-23T02:08:16;94635.69;;;16.70;87.57
68141;BME280;54941;52.220;104.306;2022-07-23T02:10:44;94638.72;;;16.90;86.06
68141;BME280;54941;52.220;104.306;2022-07-23T02:13:13;94643.53;;;16.83;85.09
68141;BME280;54941;52.220;104.306;2022-07-23T02:15:40;94644.38;;;16.79;84.88
68141;BME280;54941;52.220;104.306;2022-07-23T02:18:06;94643.41;;;17.21;83.76
68141;BME280;54941;52.220;104.306;2022-07-23T02:20:32;94635.13;;;17.32;82.80
68141;BME280;54941;52.220;104.306;2022-07-23T02:22:58;94644.47;;;17.47;82.85
68141;BME280;54941;52.220;104.306;2022-07-23T02:25:24;94646.34;;;17.00;85.01
68141;BME280;54941;52.220;104.306;2022-07-23T02:27:50;94644.31;;;16.97;84.36
68141;BME280;54941;52.220;104.306;2022-07-23T02:30:16;94647.00;;;16.92;84.65
68141;BME280;54941;52.220;104.306;2022-07-23T02:32:42;94641.16;;;16.68;85.28
68141;BME280;54941;52.220;104.306;2022-07-23T02:35:09;94652.31;;;16.87;85.07
68141;BME280;54941;52.220;104.306;2022-07-23T02:37:35;94645.81;;;16.52;85.51
68141;BME280;54941;52.220;104.306;2022-07-23T02:40:04;94648.38;;;16.01;88.23
68141;BME280;54941;52.220;104.306;2022-07-23T02:42:30;94647.59;;;16.01;89.51
68141;BME280;54941;52.220;104.306;2022-07-23T02:44:56;94653.50;;;16.06;89.60
68141;BME280;54941;52.220;104.306;2022-07-23T02:47:23;94653.09;;;16.18;89.03
68141;BME280;54941;52.220;104.306;2022-07-23T02:49:49;94647.47;;;16.11;88.94
68141;BME280;54941;52.220;104.306;2022-07-23T02:52:15;94655.75;;;15.94;89.66
68141;BME280;54941;52.220;104.306;2022-07-23T02:54:41;94649.91;;;16.02;88.77
68141;BME280;54941;52.220;104.306;2022-07-23T02:57:09;94651.53;;;15.98;88.93
68141;BME280;54941;52.220;104.306;2022-07-23T02:59:36;94653.09;;;15.99;89.16
68141;BME280;54941;52.220;104.306;2022-07-23T03:02:02;94653.34;;;15.79;89.88
68141;BME280;54941;52.220;104.306;2022-07-23T03:04:28;94660.09;;;15.80;90.32
68141;BME280;54941;52.220;104.306;2022-07-23T03:06:54;94652.78;;;15.82;90.64
68141;BME280;54941;52.220;104.306;2022-07-23T03:09:20;94651.94;;;15.87;91.56
68141;BME280;54941;52.220;104.306;2022-07-23T03:11:46;94663.16;;;15.82;93.49
68141;BME280;54941;52.220;104.306;2022-07-23T03:14:12;94660.88;;;15.81;94.14
68141;BME280;54941;52.220;104.306;2022-07-23T03:16:38;94656.72;;;15.56;93.02
68141;BME280;54941;52.220;104.306;2022-07-23T03:19:04;94662.69;;;15.56;93.29
68141;BME280;54941;52.220;104.306;2022-07-23T03:21:31;94664.06;;;15.73;93.34
68141;BME280;54941;52.220;104.306;2022-07-23T03:23:57;94662.44;;;15.58;93.72
68141;BME280;54941;52.220;104.306;2022-07-23T03:26:23;94664.72;;;15.59;94.42
68141;BME280;54941;52.220;104.306;2022-07-23T03:28:49;94667.38;;;15.78;94.57
68141;BME280;54941;52.220;104.306;2022-07-23T03:31:15;94674.91;;;15.80;94.63
68141;BME280;54941;52.220;104.306;2022-07-23T03:33:41;94671.59;;;15.93;94.01
68141;BME280;54941;52.220;104.306;2022-07-23T03:36:08;94670.81;;;15.74;93.79
68141;BME280;54941;52.220;104.306;2022-07-23T03:38:34;94674.09;;;15.61;95.53
68141;BME280;54941;52.220;104.306;2022-07-23T03:41:00;94681.59;;;15.62;96.43
68141;BME280;54941;52.220;104.306;2022-07-23T03:43:26;94688.06;;;15.65;96.73
68141;BME280;54941;52.220;104.306;2022-07-23T03:45:53;94686.38;;;15.55;95.71
68141;BME280;54941;52.220;104.306;2022-07-23T03:48:19;94680.94;;;15.51;96.25
68141;BME280;54941;52.220;104.306;2022-07-23T03:50:45;94684.97;;;15.63;96.47
68141;BME280;54941;52.220;104.306;2022-07-23T03:53:11;94697.31;;;15.47;97.13
68141;BME280;54941;52.220;104.306;2022-07-23T03:55:37;94686.41;;;15.45;98.07
68141;BME280;54941;52.220;104.306;2022-07-23T03:58:03;94689.88;;;15.64;96.73
68141;BME280;54941;52.220;104.306;2022-07-23T04:00:31;94697.19;;;15.62;96.48
68141;BME280;54941;52.220;104.306;2022-07-23T04:02:57;94689.28;;;15.72;96.28
68141;BME280;54941;52.220;104.306;2022-07-23T04:05:23;94695.28;;;15.68;96.85
68141;BME280;54941;52.220;104.306;2022-07-23T04:07:49;94699.06;;;15.56;96.91
68141;BME280;54941;52.220;104.306;2022-07-23T04:10:15;94689.78;;;15.45;97.30
68141;BME280;54941;52.220;104.306;2022-07-23T04:12:42;94691.78;;;15.58;96.48
68141;BME280;54941;52.220;104.306;2022-07-23T04:15:08;94700.72;;;15.71;96.93
68141;BME280;54941;52.220;104.306;2022-07-23T04:17:34;94696.78;;;15.50;96.63
68141;BME280;54941;52.220;104.306;2022-07-23T04:20:01;94700.84;;;15.61;97.39
68141;BME280;54941;52.220;104.306;2022-07-23T04:22:29;94699.63;;;15.77;95.68
68141;BME280;54941;52.220;104.306;2022-07-23T04:24:55;94701.25;;;15.92;95.85
68141;BME280;54941;52.220;104.306;2022-07-23T04:27:21;94703.38;;;16.08;94.50
68141;BME280;54941;52.220;104.306;2022-07-23T04:29:47;94703.59;;;16.12;94.67
68141;BME280;54941;52.220;104.306;2022-07-23T04:32:13;94710.28;;;16.37;93.86
68141;BME280;54941;52.220;104.306;2022-07-23T04:34:40;94703.59;;;16.31;93.51
68141;BME280;54941;52.220;104.306;2022-07-23T04:37:06;94711.97;;;16.46;92.30
68141;BME280;54941;52.220;104.306;2022-07-23T04:39:32;94709.16;;;16.24;92.71
68141;BME280;54941;52.220;104.306;2022-07-23T04:41:58;94704.16;;;16.46;92.05
68141;BME280;54941;52.220;104.306;2022-07-23T04:44:24;94699.59;;;16.20;92.81
68141;BME280;54941;52.220;104.306;2022-07-23T04:46:50;94707.91;;;16.22;92.93
68141;BME280;54941;52.220;104.306;2022-07-23T04:49:16;94711.25;;;16.22;92.96
68141;BME280;54941;52.220;104.306;2022-07-23T04:51:43;94713.00;;;16.08;92.64
68141;BME280;54941;52.220;104.306;2022-07-23T04:54:09;94708.50;;;15.95;93.55
68141;BME280;54941;52.220;104.306;2022-07-23T04:56:35;94714.88;;;15.84;94.37
68141;BME280;54941;52.220;104.306;2022-07-23T04:59:01;94714.25;;;15.68;95.45
68141;BME280;54941;52.220;104.306;2022-07-23T05:01:28;94714.22;;;15.73;96.05
68141;BME280;54941;52.220;104.306;2022-07-23T05:03:54;94712.22;;;15.65;96.14
68141;BME280;54941;52.220;104.306;2022-07-23T05:06:20;94715.63;;;15.61;96.57
68141;BME280;54941;52.220;104.306;2022-07-23T05:08:46;94713.91;;;15.75;95.94
68141;BME280;54941;52.220;104.306;2022-07-23T05:11:13;94712.88;;;15.76;96.25
68141;BME280;54941;52.220;104.306;2022-07-23T05:13:39;94716.91;;;15.63;96.67
68141;BME280;54941;52.220;104.306;2022-07-23T05:16:05;94716.50;;;15.75;96.60
68141;BME280;54941;52.220;104.306;2022-07-23T05:18:31;94711.34;;;15.93;96.30
68141;BME280;54941;52.220;104.306;2022-07-23T05:20:57;94716.13;;;15.86;96.07
68141;BME280;54941;52.220;104.306;2022-07-23T05:23:24;94711.88;;;15.72;96.81
68141;BME280;54941;52.220;104.306;2022-07-23T05:25:50;94722.44;;;15.56;97.79
68141;BME280;54941;52.220;104.306;2022-07-23T05:28:16;94713.47;;;15.68;98.80
68141;BME280;54941;52.220;104.306;2022-07-23T05:30:42;94706.28;;;15.83;97.27
68141;BME280;54941;52.220;104.306;2022-07-23T05:33:09;94704.06;;;15.95;96.40
68141;BME280;54941;52.220;104.306;2022-07-23T05:35:35;94704.00;;;16.19;95.26
68141;BME280;54941;52.220;104.306;2022-07-23T05:38:03;94701.00;;;16.31;93.41
68141;BME280;54941;52.220;104.306;2022-07-23T05:40:30;94708.16;;;16.39;91.11
68141;BME280;54941;52.220;104.306;2022-07-23T05:42:56;94709.50;;;16.55;89.21
68141;BME280;54941;52.220;104.306;2022-07-23T05:45:22;94705.88;;;16.56;89.70
68141;BME280;54941;52.220;104.306;2022-07-23T05:47:49;94701.22;;;16.72;89.29
68141;BME280;54941;52.220;104.306;2022-07-23T05:50:16;94714.09;;;16.63;88.50
68141;BME280;54941;52.220;104.306;2022-07-23T05:52:42;94713.06;;;16.78;88.84
68141;BME280;54941;52.220;104.306;2022-07-23T05:55:10;94711.25;;;16.78;88.39
68141;BME280;54941;52.220;104.306;2022-07-23T05:57:36;94710.22;;;16.79;87.38
68141;BME280;54941;52.220;104.306;2022-07-23T06:00:04;94702.13;;;16.81;86.41
68141;BME280;54941;52.220;104.306;2022-07-23T06:02:31;94699.13;;;17.20;85.23
68141;BME280;54941;52.220;104.306;2022-07-23T06:04:57;94701.41;;;17.53;84.50
68141;BME280;54941;52.220;104.306;2022-07-23T06:07:23;94701.63;;;17.57;83.42
68141;BME280;54941;52.220;104.306;2022-07-23T06:09:49;94695.22;;;18.04;82.86
68141;BME280;54941;52.220;104.306;2022-07-23T06:12:16;94701.91;;;17.83;82.63
68141;BME280;54941;52.220;104.306;2022-07-23T06:14:58;94687.97;;;18.01;81.57
68141;BME280;54941;52.220;104.306;2022-07-23T06:17:25;94699.19;;;18.02;82.86
68141;BME280;54941;52.220;104.306;2022-07-23T06:19:51;94690.31;;;18.38;81.68
68141;BME280;54941;52.220;104.306;2022-07-23T06:22:17;94684.19;;;18.21;78.61
68141;BME280;54941;52.220;104.306;2022-07-23T06:24:43;94685.19;;;18.33;82.40
68141;BME280;54941;52.220;104.306;2022-07-23T06:27:09;94687.97;;;18.51;81.62
68141;BME280;54941;52.220;104.306;2022-07-23T06:29:36;94684.13;;;18.70;82.62
68141;BME280;54941;52.220;104.306;2022-07-23T06:32:02;94677.97;;;18.66;81.72
68141;BME280;54941;52.220;104.306;2022-07-23T06:34:28;94677.09;;;18.35;81.20
68141;BME280;54941;52.220;104.306;2022-07-23T06:36:54;94686.38;;;18.27;83.41
68141;BME280;54941;52.220;104.306;2022-07-23T06:39:20;94679.22;;;18.33;82.50
68141;BME280;54941;52.220;104.306;2022-07-23T06:41:48;94685.09;;;18.38;81.51
68141;BME280;54941;52.220;104.306;2022-07-23T06:44:19;94685.53;;;18.18;81.77
68141;BME280;54941;52.220;104.306;2022-07-23T06:46:46;94679.38;;;18.00;81.78
68141;BME280;54941;52.220;104.306;2022-07-23T06:49:12;94686.44;;;18.14;82.73
68141;BME280;54941;52.220;104.306;2022-07-23T06:51:38;94684.97;;;18.21;83.34
68141;BME280;54941;52.220;104.306;2022-07-23T06:54:04;94681.84;;;18.19;82.42
68141;BME280;54941;52.220;104.306;2022-07-23T06:56:30;94682.09;;;18.09;84.16
68141;BME280;54941;52.220;104.306;2022-07-23T06:58:56;94676.38;;;18.07;82.65
68141;BME280;54941;52.220;104.306;2022-07-23T07:01:22;94679.75;;;18.21;83.66
68141;BME280;54941;52.220;104.306;2022-07-23T07:03:49;94683.00;;;18.63;82.86
68141;BME280;54941;52.220;104.306;2022-07-23T07:06:15;94674.81;;;18.78;82.09
68141;BME280;54941;52.220;104.306;2022-07-23T07:08:42;94678.53;;;18.77;79.88
68141;BME280;54941;52.220;104.306;2022-07-23T07:11:08;94677.84;;;18.71;79.98
68141;BME280;54941;52.220;104.306;2022-07-23T07:13:34;94679.94;;;18.61;79.77
68141;BME280;54941;52.220;104.306;2022-07-23T07:16:00;94680.22;;;18.59;80.81
68141;BME280;54941;52.220;104.306;2022-07-23T07:18:26;94682.47;;;18.74;79.60
68141;BME280;54941;52.220;104.306;2022-07-23T07:20:52;94679.25;;;18.77;79.32
68141;BME280;54941;52.220;104.306;2022-07-23T07:23:18;94685.22;;;18.91;79.40
68141;BME280;54941;52.220;104.306;2022-07-23T07:25:44;94687.69;;;18.96;79.59
68141;BME280;54941;52.220;104.306;2022-07-23T07:28:10;94688.63;;;19.01;78.68
68141;BME280;54941;52.220;104.306;2022-07-23T07:30:37;94693.50;;;19.16;77.31
68141;BME280;54941;52.220;104.306;2022-07-23T07:33:03;94696.88;;;19.16;78.65
68141;BME280;54941;52.220;104.306;2022-07-23T07:35:29;94696.63;;;19.04;80.07
68141;BME280;54941;52.220;104.306;2022-07-23T07:37:55;94689.59;;;18.82;80.41
68141;BME280;54941;52.220;104.306;2022-07-23T07:40:21;94689.09;;;19.25;77.66
68141;BME280;54941;52.220;104.306;2022-07-23T07:42:50;94687.75;;;19.36;77.63
68141;BME280;54941;52.220;104.306;2022-07-23T07:45:16;94683.72;;;19.61;77.12
68141;BME280;54941;52.220;104.306;2022-07-23T07:47:43;94692.63;;;19.60;74.66
68141;BME280;54941;52.220;104.306;2022-07-23T07:50:09;94689.94;;;19.82;75.25
68141;BME280;54941;52.220;104.306;2022-07-23T07:52:36;94696.72;;;19.83;73.85
68141;BME280;54941;52.220;104.306;2022-07-23T07:55:07;94688.72;;;19.79;71.77
68141;BME280;54941;52.220;104.306;2022-07-23T07:57:35;94690.75;;;19.91;71.51
68141;BME280;54941;52.220;104.306;2022-07-23T08:00:01;94693.88;;;19.62;74.35
68141;BME280;54941;52.220;104.306;2022-07-23T08:02:29;94691.91;;;19.68;73.51
68141;BME280;54941;52.220;104.306;2022-07-23T08:04:55;94699.94;;;19.80;72.79
68141;BME280;54941;52.220;104.306;2022-07-23T08:07:21;94702.31;;;19.59;73.19
68141;BME280;54941;52.220;104.306;2022-07-23T08:09:47;94708.03;;;19.61;73.17
68141;BME280;54941;52.220;104.306;2022-07-23T08:12:13;94711.25;;;19.58;73.32
68141;BME280;54941;52.220;104.306;2022-07-23T08:14:39;94705.06;;;19.23;74.28
68141;BME280;54941;52.220;104.306;2022-07-23T08:17:06;94703.13;;;19.37;74.71
68141;BME280;54941;52.220;104.306;2022-07-23T08:19:32;94708.44;;;19.46;73.96
68141;BME280;54941;52.220;104.306;2022-07-23T08:21:58;94710.31;;;19.63;74.49
68141;BME280;54941;52.220;104.306;2022-07-23T08:24:24;94703.63;;;19.79;72.96
68141;BME280;54941;52.220;104.306;2022-07-23T08:26:50;94714.72;;;19.84;73.43
68141;BME280;54941;52.220;104.306;2022-07-23T08:29:16;94712.84;;;19.76;74.58
68141;BME280;54941;52.220;104.306;2022-07-23T08:31:42;94706.72;;;19.89;74.75
68141;BME280;54941;52.220;104.306;2022-07-23T08:34:09;94703.50;;;19.92;72.88
68141;BME280;54941;52.220;104.306;2022-07-23T08:36:35;94713.16;;;19.75;73.20
68141;BME280;54941;52.220;104.306;2022-07-23T08:39:02;94709.72;;;20.14;73.44
68141;BME280;54941;52.220;104.306;2022-07-23T08:41:28;94711.69;;;20.08;70.95
68141;BME280;54941;52.220;104.306;2022-07-23T08:43:54;94711.09;;;20.11;71.33
68141;BME280;54941;52.220;104.306;2022-07-23T08:46:20;94712.41;;;20.31;71.62
68141;BME280;54941;52.220;104.306;2022-07-23T08:48:48;94709.63;;;20.45;72.38
68141;BME280;54941;52.220;104.306;2022-07-23T08:51:15;94709.63;;;20.36;71.08
68141;BME280;54941;52.220;104.306;2022-07-23T08:53:41;94715.03;;;20.39;73.30
68141;BME280;54941;52.220;104.306;2022-07-23T08:56:08;94709.38;;;19.98;72.49
68141;BME280;54941;52.220;104.306;2022-07-23T08:58:34;94714.16;;;19.57;73.54
68141;BME280;54941;52.220;104.306;2022-07-23T09:01:01;94705.88;;;19.55;72.57
68141;BME280;54941;52.220;104.306;2022-07-23T09:03:30;94706.22;;;19.39;74.35
68141;BME280;54941;52.220;104.306;2022-07-23T09:05:58;94709.13;;;19.38;73.74
68141;BME280;54941;52.220;104.306;2022-07-23T09:08:33;94720.59;;;19.51;74.46
68141;BME280;54941;52.220;104.306;2022-07-23T09:11:02;94708.69;;;19.75;73.89
68141;BME280;54941;52.220;104.306;2022-07-23T09:13:35;94713.34;;;19.96;73.54
68141;BME280;54941;52.220;104.306;2022-07-23T09:16:46;94709.88;;;20.09;71.80
68141;BME280;54941;52.220;104.306;2022-07-23T09:18:54;94706.03;;;20.06;72.00
68141;BME280;54941;52.220;104.306;2022-07-23T09:21:26;94707.88;;;20.23;72.10
68141;BME280;54941;52.220;104.306;2022-07-23T09:23:55;94711.94;;;20.63;70.83
68141;BME280;54941;52.220;104.306;2022-07-23T09:26:34;94711.69;;;20.08;72.02
68141;BME280;54941;52.220;104.306;2022-07-23T09:29:04;94710.47;;;20.14;72.93
68141;BME280;54941;52.220;104.306;2022-07-23T09:31:46;94702.25;;;20.38;71.92
68141;BME280;54941;52.220;104.306;2022-07-23T09:34:18;94716.25;;;20.68;72.65
68141;BME280;54941;52.220;104.306;2022-07-23T09:36:44;94713.63;;;20.85;71.88
68141;BME280;54941;52.220;104.306;2022-07-23T09:39:11;94717.94;;;20.64;71.24
68141;BME280;54941;52.220;104.306;2022-07-23T09:41:47;94714.09;;;21.13;70.93
68141;BME280;54941;52.220;104.306;2022-07-23T09:44:19;94713.16;;;20.92;71.13
68141;BME280;54941;52.220;104.306;2022-07-23T09:46:47;94715.31;;;20.98;70.91
68141;BME280;54941;52.220;104.306;2022-07-23T09:49:23;94712.25;;;20.87;72.07
68141;BME280;54941;52.220;104.306;2022-07-23T09:51:52;94710.84;;;20.81;72.29
68141;BME280;54941;52.220;104.306;2022-07-23T09:54:31;94721.03;;;20.66;72.42
68141;BME280;54941;52.220;104.306;2022-07-23T09:57:00;94712.13;;;20.58;72.32
68141;BME280;54941;52.220;104.306;2022-07-23T09:59:29;94720.28;;;20.57;70.58
68141;BME280;54941;52.220;104.306;2022-07-23T10:01:57;94716.47;;;20.15;71.36
68141;BME280;54941;52.220;104.306;2022-07-23T10:04:24;94720.50;;;20.12;72.25
68141;BME280;54941;52.220;104.306;2022-07-23T10:06:54;94715.63;;;20.28;72.35
68141;BME280;54941;52.220;104.306;2022-07-23T10:09:25;94724.50;;;20.18;72.43
68141;BME280;54941;52.220;104.306;2022-07-23T10:11:54;94720.78;;;20.02;72.75
68141;BME280;54941;52.220;104.306;2022-07-23T10:14:20;94726.34;;;20.26;71.64
68141;BME280;54941;52.220;104.306;2022-07-23T10:16:47;94724.69;;;20.30;72.40
68141;BME280;54941;52.220;104.306;2022-07-23T10:19:14;94722.47;;;20.07;72.88
68141;BME280;54941;52.220;104.306;2022-07-23T10:21:52;94720.31;;;20.09;72.39
68141;BME280;54941;52.220;104.306;2022-07-23T10:30:18;94731.50;;;19.83;74.32
68141;BME280;54941;52.220;104.306;2022-07-23T10:35:43;94731.72;;;20.21;73.43
68141;BME280;54941;52.220;104.306;2022-07-23T10:38:30;94732.81;;;20.20;73.79
68141;BME280;54941;52.220;104.306;2022-07-23T10:40:57;94730.91;;;20.04;73.48
68141;BME280;54941;52.220;104.306;2022-07-23T10:43:25;94730.91;;;20.04;74.43
68141;BME280;54941;52.220;104.306;2022-07-23T10:45:51;94738.72;;;19.86;74.58
68141;BME280;54941;52.220;104.306;2022-07-23T10:48:27;94738.34;;;19.71;74.03
68141;BME280;54941;52.220;104.306;2022-07-23T10:51:16;94739.34;;;19.53;74.83
68141;BME280;54941;52.220;104.306;2022-07-23T10:53:58;94744.16;;;19.37;78.03
68141;BME280;54941;52.220;104.306;2022-07-23T10:56:49;94748.75;;;19.31;79.09
68141;BME280;54941;52.220;104.306;2022-07-23T10:59:16;94748.75;;;19.31;78.58
68141;BME280;54941;52.220;104.306;2022-07-23T11:01:42;94750.47;;;19.36;78.91
68141;BME280;54941;52.220;104.306;2022-07-23T11:04:08;94749.38;;;19.37;78.53
68141;BME280;54941;52.220;104.306;2022-07-23T11:09:38;94757.56;;;19.13;82.43
68141;BME280;54941;52.220;104.306;2022-07-23T11:17:32;94769.00;;;19.26;80.22
68141;BME280;54941;52.220;104.306;2022-07-23T11:27:49;94780.09;;;19.84;75.21
68141;BME280;54941;52.220;104.306;2022-07-23T11:35:41;94778.25;;;19.85;75.84
68141;BME280;54941;52.220;104.306;2022-07-23T11:40:40;94778.94;;;19.68;76.74
68141;BME280;54941;52.220;104.306;2022-07-23T11:43:08;94788.13;;;19.57;76.71
68141;BME280;54941;52.220;104.306;2022-07-23T11:45:36;94791.09;;;19.42;76.49
68141;BME280;54941;52.220;104.306;2022-07-23T11:48:04;94795.34;;;19.38;75.54
68141;BME280;54941;52.220;104.306;2022-07-23T11:50:32;94806.22;;;19.31;76.25
68141;BME280;54941;52.220;104.306;2022-07-23T11:52:58;94801.72;;;19.23;76.59
68141;BME280;54941;52.220;104.306;2022-07-23T11:55:26;94805.63;;;19.12;76.69
68141;BME280;54941;52.220;104.306;2022-07-23T11:57:53;94810.41;;;19.10;78.02
68141;BME280;54941;52.220;104.306;2022-07-23T12:00:21;94811.09;;;19.02;78.51
68141;BME280;54941;52.220;104.306;2022-07-23T12:02:53;94812.19;;;18.87;78.75
68141;BME280;54941;52.220;104.306;2022-07-23T12:05:22;94804.78;;;18.67;80.93
68141;BME280;54941;52.220;104.306;2022-07-23T12:07:51;94802.22;;;18.54;82.36
68141;BME280;54941;52.220;104.306;2022-07-23T12:13:00;94814.00;;;18.24;85.08
68141;BME280;54941;52.220;104.306;2022-07-23T12:15:29;94810.06;;;18.13;85.35
68141;BME280;54941;52.220;104.306;2022-07-23T12:17:56;94807.06;;;18.06;85.74
68141;BME280;54941;52.220;104.306;2022-07-23T12:20:26;94817.19;;;18.07;85.74
68141;BME280;54941;52.220;104.306;2022-07-23T12:22:56;94815.16;;;18.04;86.10
68141;BME280;54941;52.220;104.306;2022-07-23T12:25:31;94813.31;;;18.05;86.88
68141;BME280;54941;52.220;104.306;2022-07-23T12:30:42;94816.13;;;17.94;87.55
68141;BME280;54941;52.220;104.306;2022-07-23T12:33:11;94815.94;;;17.91;88.63
68141;BME280;54941;52.220;104.306;2022-07-23T12:35:45;94817.19;;;17.80;89.75
68141;BME280;54941;52.220;104.306;2022-07-23T12:38:17;94814.75;;;17.70;90.17
68141;BME280;54941;52.220;104.306;2022-07-23T12:40:45;94812.03;;;17.61;91.26
68141;BME280;54941;52.220;104.306;2022-07-23T12:48:21;94810.41;;;17.46;92.97
68141;BME280;54941;52.220;104.306;2022-07-23T12:53:31;94810.47;;;17.28;95.05
68141;BME280;54941;52.220;104.306;2022-07-23T12:56:09;94806.72;;;17.15;95.31
68141;BME280;54941;52.220;104.306;2022-07-23T13:01:06;94819.56;;;16.93;96.47
68141;BME280;54941;52.220;104.306;2022-07-23T13:03:35;94827.94;;;16.71;97.26
68141;BME280;54941;52.220;104.306;2022-07-23T13:06:04;94827.09;;;16.57;98.01
68141;BME280;54941;52.220;104.306;2022-07-23T13:08:32;94838.63;;;16.46;98.86
68141;BME280;54941;52.220;104.306;2022-07-23T13:10:59;94835.59;;;16.39;99.30
68141;BME280;54941;52.220;104.306;2022-07-23T13:13:28;94830.88;;;16.41;99.38
68141;BME280;54941;52.220;104.306;2022-07-23T13:15:56;94837.84;;;16.45;98.77
68141;BME280;54941;52.220;104.306;2022-07-23T13:18:22;94837.97;;;16.35;98.79
68141;BME280;54941;52.220;104.306;2022-07-23T13:20:49;94852.41;;;16.23;99.20
68141;BME280;54941;52.220;104.306;2022-07-23T13:23:16;94849.66;;;16.14;99.32
68141;BME280;54941;52.220;104.306;2022-07-23T13:25:44;94848.72;;;16.05;99.56
68141;BME280;54941;52.220;104.306;2022-07-23T13:28:11;94847.78;;;15.96;100.00
68141;BME280;54941;52.220;104.306;2022-07-23T13:30:38;94850.41;;;15.91;100.00